^^
Meteo Knjazevac Station Historical Data
Daily Summary for July 31, 2021 Units:  Both    English   Metric
Daily Weekly Monthly Yearly Custom
  High: Low: Average:
Temperature: 66.4 °F /  19.1 °C 43 °F /  6.1 °C 55.6 °F /  13.1 °C
Dew Point: 53.3 °F /  11.8 °C 41.9 °F /  5.5 °C 48.8 °F /  9.3 °C
Humidity: 99% 57% 80%
Wind Speed: 10mph /  16.1km/h - 3.3mph /  5.3km/h
Wind Gust: 20mph /  32.2km/h - -
Wind- - WSW
Pressure: 30.10 in /  1019.2 hPa 30.00 in /  1015.8 hPa -
Precipitation: 0.00 in /  0 mm    
Historical Graphs
 
 
Tabular Data for July 31, 2021
Time Temperature Dew Point Pressure Wind Wind Speed Wind Gust Humidity Rainfall Rate (Hourly) solar Conditions
00:00 49.1 °F /  9.5 °C 47.4 °F /  8.6 °C 30.10in /  1019.2hPa Calm   2mph /  3.2km/h 94% 0.00in /  0mm 0 W/m2
00:10 48.7 °F /  9.3 °C 47.1 °F /  8.4 °C 30.10in /  1019.2hPa WSW 1mph /  1.6km/h 2mph /  3.2km/h 94% 0.00in /  0mm 0 W/m2
00:20 48.2 °F /  9 °C 46.6 °F /  8.1 °C 30.10in /  1019.2hPa Calm   2mph /  3.2km/h 94% 0.00in /  0mm 0 W/m2
00:30 47.7 °F /  8.7 °C 46 °F /  7.8 °C 30.10in /  1019.2hPa Calm   2mph /  3.2km/h 94% 0.00in /  0mm 0 W/m2
00:40 47.3 °F /  8.5 °C 45.7 °F /  7.6 °C 30.10in /  1019.2hPa NW 1mph /  1.6km/h 2mph /  3.2km/h 94% 0.00in /  0mm 0 W/m2
00:50 46.9 °F /  8.3 °C 45.3 °F /  7.4 °C 30.10in /  1019.2hPa Calm   2mph /  3.2km/h 94% 0.00in /  0mm 0 W/m2
01:00 46.8 °F /  8.2 °C 45.4 °F /  7.4 °C 30.10in /  1019.2hPa NE 1mph /  1.6km/h 2mph /  3.2km/h 95% 0.00in /  0mm 0 W/m2
01:10 46.6 °F /  8.1 °C 45.2 °F /  7.3 °C 30.10in /  1019.2hPa Calm   1mph /  1.6km/h 95% 0.00in /  0mm 0 W/m2
01:20 46.4 °F /  8 °C 45 °F /  7.2 °C 30.10in /  1019.2hPa Calm   2mph /  3.2km/h 95% 0.00in /  0mm 0 W/m2
01:30 46 °F /  7.8 °C 45 °F /  7.2 °C 30.10in /  1019.2hPa SW 1mph /  1.6km/h 4mph /  6.4km/h 96% 0.00in /  0mm 0 W/m2
01:40 46 °F /  7.8 °C 45 °F /  7.2 °C 30.10in /  1019.2hPa Calm   2mph /  3.2km/h 96% 0.00in /  0mm 0 W/m2
01:50 45.9 °F /  7.7 °C 44.8 °F /  7.1 °C 30.10in /  1019.2hPa Calm   2mph /  3.2km/h 96% 0.00in /  0mm 0 W/m2
02:00 45.7 °F /  7.6 °C 44.6 °F /  7 °C 30.10in /  1019.2hPa Calm   3mph /  4.8km/h 96% 0.00in /  0mm 0 W/m2
02:10 45.5 °F /  7.5 °C 44.4 °F /  6.9 °C 30.09in /  1018.8hPa Calm   2mph /  3.2km/h 96% 0.00in /  0mm 0 W/m2
02:20 45.5 °F /  7.5 °C 44.4 °F /  6.9 °C 30.09in /  1018.8hPa Calm   2mph /  3.2km/h 96% 0.00in /  0mm 0 W/m2
02:30 45.1 °F /  7.3 °C 44.1 °F /  6.7 °C 30.09in /  1018.8hPa Calm   2mph /  3.2km/h 96% 0.00in /  0mm 0 W/m2
02:40 45.1 °F /  7.3 °C 44.1 °F /  6.7 °C 30.09in /  1018.8hPa Calm   2mph /  3.2km/h 96% 0.00in /  0mm 0 W/m2
02:50 45 °F /  7.2 °C 43.9 °F /  6.6 °C 30.09in /  1018.8hPa NE 1mph /  1.6km/h 2mph /  3.2km/h 96% 0.00in /  0mm 0 W/m2
03:00 45 °F /  7.2 °C 44.4 °F /  6.9 °C 30.09in /  1018.8hPa Calm   5mph /  8km/h 98% 0.00in /  0mm 0 W/m2
03:10 44.8 °F /  7.1 °C 44.3 °F /  6.8 °C 30.09in /  1018.8hPa Calm   2mph /  3.2km/h 98% 0.00in /  0mm 0 W/m2
03:20 44.8 °F /  7.1 °C 44.3 °F /  6.8 °C 30.08in /  1018.5hPa SE 1mph /  1.6km/h 3mph /  4.8km/h 98% 0.00in /  0mm 0 W/m2
03:30 44.8 °F /  7.1 °C 44.3 °F /  6.8 °C 30.08in /  1018.5hPa Calm   3mph /  4.8km/h 98% 0.00in /  0mm 0 W/m2
03:40 44.4 °F /  6.9 °C 43.4 °F /  6.3 °C 30.08in /  1018.5hPa Calm   2mph /  3.2km/h 96% 0.00in /  0mm 0 W/m2
03:50 44.2 °F /  6.8 °C 43.2 °F /  6.2 °C 30.08in /  1018.5hPa Calm   3mph /  4.8km/h 96% 0.00in /  0mm 0 W/m2
04:00 44.1 °F /  6.7 °C 43.5 °F /  6.4 °C 30.08in /  1018.5hPa Calm   3mph /  4.8km/h 98% 0.00in /  0mm 0 W/m2
04:10 44.1 °F /  6.7 °C 43.5 °F /  6.4 °C 30.08in /  1018.5hPa Calm   2mph /  3.2km/h 98% 0.00in /  0mm 0 W/m2
04:20 44.1 °F /  6.7 °C 43.5 °F /  6.4 °C 30.08in /  1018.5hPa Calm   2mph /  3.2km/h 98% 0.00in /  0mm 0 W/m2
04:30 44.1 °F /  6.7 °C 43.5 °F /  6.4 °C 30.08in /  1018.5hPa Calm   2mph /  3.2km/h 98% 0.00in /  0mm 0 W/m2
04:40 43.7 °F /  6.5 °C 43.2 °F /  6.2 °C 30.08in /  1018.5hPa Calm   2mph /  3.2km/h 98% 0.00in /  0mm 0 W/m2
04:50 43.7 °F /  6.5 °C 43.2 °F /  6.2 °C 30.08in /  1018.5hPa Calm   2mph /  3.2km/h 98% 0.00in /  0mm 0 W/m2
05:00 43.5 °F /  6.4 °C 43 °F /  6.1 °C 30.08in /  1018.5hPa Calm   2mph /  3.2km/h 98% 0.00in /  0mm 6 W/m2
05:10 43 °F /  6.1 °C 41.9 °F /  5.5 °C 30.08in /  1018.5hPa Calm   3mph /  4.8km/h 96% 0.00in /  0mm 12 W/m2
05:20 43 °F /  6.1 °C 42.5 °F /  5.8 °C 30.08in /  1018.5hPa Calm   2mph /  3.2km/h 98% 0.00in /  0mm 20 W/m2
05:30 43 °F /  6.1 °C 42.5 °F /  5.8 °C 30.08in /  1018.5hPa Calm   3mph /  4.8km/h 98% 0.00in /  0mm 29 W/m2
05:40 43 °F /  6.1 °C 42.7 °F /  5.9 °C 30.09in /  1018.8hPa Calm   3mph /  4.8km/h 99% 0.00in /  0mm 37 W/m2
05:50 43.2 °F /  6.2 °C 42.9 °F /  6.1 °C 30.09in /  1018.8hPa WNW 1mph /  1.6km/h 2mph /  3.2km/h 99% 0.00in /  0mm 69 W/m2
06:00 43.3 °F /  6.3 °C 43.1 °F /  6.2 °C 30.09in /  1018.8hPa SW 2mph /  3.2km/h 4mph /  6.4km/h 99% 0.00in /  0mm 94 W/m2
06:10 43.7 °F /  6.5 °C 43.4 °F /  6.3 °C 30.09in /  1018.8hPa Calm   2mph /  3.2km/h 99% 0.00in /  0mm 118 W/m2
06:20 44.1 °F /  6.7 °C 43.8 °F /  6.6 °C 30.09in /  1018.8hPa Calm   2mph /  3.2km/h 99% 0.00in /  0mm 140 W/m2
06:30 44.6 °F /  7 °C 44.3 °F /  6.8 °C 30.09in /  1018.8hPa Calm   2mph /  3.2km/h 99% 0.00in /  0mm 168 W/m2
06:40 45.3 °F /  7.4 °C 45.1 °F /  7.3 °C 30.09in /  1018.8hPa East 2mph /  3.2km/h 5mph /  8km/h 99% 0.00in /  0mm 195 W/m2
06:50 46.2 °F /  7.9 °C 46 °F /  7.8 °C 30.09in /  1018.8hPa ESE 1mph /  1.6km/h 5mph /  8km/h 99% 0.00in /  0mm 228 W/m2
07:00 46.9 °F /  8.3 °C 46.7 °F /  8.2 °C 30.09in /  1018.8hPa Calm   5mph /  8km/h 99% 0.00in /  0mm 258 W/m2
07:10 47.3 °F /  8.5 °C 47 °F /  8.3 °C 30.09in /  1018.8hPa Calm   3mph /  4.8km/h 99% 0.00in /  0mm 295 W/m2
07:20 48 °F /  8.9 °C 47.8 °F /  8.8 °C 30.09in /  1018.8hPa SE 3mph /  4.8km/h 6mph /  9.7km/h 99% 0.00in /  0mm 330 W/m2
07:30 48.9 °F /  9.4 °C 48.6 °F /  9.2 °C 30.09in /  1018.8hPa SSE 2mph /  3.2km/h 5mph /  8km/h 99% 0.00in /  0mm 364 W/m2
07:40 49.6 °F /  9.8 °C 49.1 °F /  9.5 °C 30.09in /  1018.8hPa SSE 5mph /  8km/h 7mph /  11.3km/h 98% 0.00in /  0mm 398 W/m2
07:50 50.5 °F /  10.3 °C 49.4 °F /  9.7 °C 30.08in /  1018.5hPa ESE 3mph /  4.8km/h 8mph /  12.9km/h 96% 0.00in /  0mm 439 W/m2
08:00 51.1 °F /  10.6 °C 49.7 °F /  9.8 °C 30.08in /  1018.5hPa SSE 5mph /  8km/h 8mph /  12.9km/h 95% 0.00in /  0mm 478 W/m2
08:10 51.8 °F /  11 °C 50.1 °F /  10.1 °C 30.08in /  1018.5hPa SE 3mph /  4.8km/h 8mph /  12.9km/h 94% 0.00in /  0mm 509 W/m2
08:20 52.5 °F /  11.4 °C 50.6 °F /  10.3 °C 30.08in /  1018.5hPa SE 3mph /  4.8km/h 7mph /  11.3km/h 93% 0.00in /  0mm 541 W/m2
08:30 53.1 °F /  11.7 °C 50.2 °F /  10.1 °C 30.08in /  1018.5hPa SSE 3mph /  4.8km/h 8mph /  12.9km/h 90% 0.00in /  0mm 574 W/m2
08:40 53.6 °F /  12 °C 50.4 °F /  10.2 °C 30.08in /  1018.5hPa ESE 1mph /  1.6km/h 7mph /  11.3km/h 89% 0.00in /  0mm 604 W/m2
08:50 54.9 °F /  12.7 °C 50.8 °F /  10.4 °C 30.07in /  1018.2hPa SSE 2mph /  3.2km/h 6mph /  9.7km/h 86% 0.00in /  0mm 642 W/m2
09:00 56.7 °F /  13.7 °C 51.9 °F /  11.1 °C 30.08in /  1018.5hPa SSE 1mph /  1.6km/h 7mph /  11.3km/h 84% 0.00in /  0mm 670 W/m2
09:10 58.3 °F /  14.6 °C 52.5 °F /  11.4 °C 30.08in /  1018.5hPa South 2mph /  3.2km/h 6mph /  9.7km/h 81% 0.00in /  0mm 696 W/m2
09:20 59.4 °F /  15.2 °C 52.5 °F /  11.4 °C 30.07in /  1018.2hPa SW 7mph /  11.3km/h 9mph /  14.5km/h 78% 0.00in /  0mm 192 W/m2
09:30 58.6 °F /  14.8 °C 51.4 °F /  10.8 °C 30.07in /  1018.2hPa WSW 2mph /  3.2km/h 7mph /  11.3km/h 77% 0.00in /  0mm 746 W/m2
09:40 59.7 °F /  15.4 °C 52.5 °F /  11.4 °C 30.07in /  1018.2hPa West 6mph /  9.7km/h 10mph /  16.1km/h 77% 0.00in /  0mm 769 W/m2
09:50 60.4 °F /  15.8 °C 52.5 °F /  11.4 °C 30.07in /  1018.2hPa West 6mph /  9.7km/h 12mph /  19.3km/h 75% 0.00in /  0mm 792 W/m2
10:00 61.2 °F /  16.2 °C 52.8 °F /  11.6 °C 30.06in /  1017.8hPa WSW 7mph /  11.3km/h 15mph /  24.1km/h 74% 0.00in /  0mm 749 W/m2
10:10 61.5 °F /  16.4 °C 52.8 °F /  11.6 °C 30.06in /  1017.8hPa West 8mph /  12.9km/h 15mph /  24.1km/h 73% 0.00in /  0mm 833 W/m2
10:20 61.9 °F /  16.6 °C 52.8 °F /  11.6 °C 30.06in /  1017.8hPa West 9mph /  14.5km/h 16mph /  25.7km/h 72% 0.00in /  0mm 852 W/m2
10:30 62.1 °F /  16.7 °C 52.2 °F /  11.2 °C 30.06in /  1017.8hPa West 9mph /  14.5km/h 15mph /  24.1km/h 70% 0.00in /  0mm 349 W/m2
10:40 61.5 °F /  16.4 °C 51.6 °F /  10.9 °C 30.06in /  1017.8hPa West 9mph /  14.5km/h 14mph /  22.5km/h 70% 0.00in /  0mm 326 W/m2
10:50 61.9 °F /  16.6 °C 52 °F /  11.1 °C 30.06in /  1017.8hPa West 10mph /  16.1km/h 15mph /  24.1km/h 70% 0.00in /  0mm 900 W/m2
11:00 62.6 °F /  17 °C 52.3 °F /  11.3 °C 30.06in /  1017.8hPa West 8mph /  12.9km/h 15mph /  24.1km/h 69% 0.00in /  0mm 293 W/m2
11:10 62.6 °F /  17 °C 52.3 °F /  11.3 °C 30.06in /  1017.8hPa West 5mph /  8km/h 13mph /  20.9km/h 69% 0.00in /  0mm 209 W/m2
11:20 62.3 °F /  16.8 °C 52 °F /  11.1 °C 30.05in /  1017.5hPa West 5mph /  8km/h 12mph /  19.3km/h 69% 0.00in /  0mm 936 W/m2
11:30 62.6 °F /  17 °C 51.5 °F /  10.8 °C 30.05in /  1017.5hPa West 8mph /  12.9km/h 13mph /  20.9km/h 67% 0.00in /  0mm 193 W/m2
11:40 62.3 °F /  16.8 °C 51.6 °F /  10.9 °C 30.05in /  1017.5hPa West 3mph /  4.8km/h 15mph /  24.1km/h 68% 0.00in /  0mm 953 W/m2
11:50 62.4 °F /  16.9 °C 51.3 °F /  10.7 °C 30.04in /  1017.2hPa West 7mph /  11.3km/h 18mph /  29km/h 67% 0.00in /  0mm 441 W/m2
12:00 63.2 °F /  17.3 °C 52 °F /  11.1 °C 30.04in /  1017.2hPa WNW 5mph /  8km/h 13mph /  20.9km/h 67% 0.00in /  0mm 403 W/m2
12:10 63.7 °F /  17.6 °C 51.3 °F /  10.7 °C 30.04in /  1017.2hPa WNW 2mph /  3.2km/h 9mph /  14.5km/h 64% 0.00in /  0mm 258 W/m2
12:20 63.5 °F /  17.5 °C 51.1 °F /  10.6 °C 30.04in /  1017.2hPa West 2mph /  3.2km/h 7mph /  11.3km/h 64% 0.00in /  0mm 455 W/m2
12:30 63.7 °F /  17.6 °C 51.3 °F /  10.7 °C 30.04in /  1017.2hPa Calm   7mph /  11.3km/h 64% 0.00in /  0mm 229 W/m2
12:40 63.5 °F /  17.5 °C 52.3 °F /  11.3 °C 30.03in /  1016.8hPa NNE 3mph /  4.8km/h 8mph /  12.9km/h 67% 0.00in /  0mm 237 W/m2
12:50 63.2 °F /  17.3 °C 52 °F /  11.1 °C 30.03in /  1016.8hPa North 1mph /  1.6km/h 7mph /  11.3km/h 67% 0.00in /  0mm 175 W/m2
13:00 62.9 °F /  17.2 °C 51.8 °F /  11 °C 30.03in /  1016.8hPa NE 1mph /  1.6km/h 8mph /  12.9km/h 67% 0.00in /  0mm 166 W/m2
13:10 62.4 °F /  16.9 °C 51.3 °F /  10.7 °C 30.03in /  1016.8hPa NNE 1mph /  1.6km/h 8mph /  12.9km/h 67% 0.00in /  0mm 226 W/m2
13:20 62.4 °F /  16.9 °C 51.3 °F /  10.7 °C 30.03in /  1016.8hPa SE 2mph /  3.2km/h 6mph /  9.7km/h 67% 0.00in /  0mm 947 W/m2
13:30 63.5 °F /  17.5 °C 51.5 °F /  10.8 °C 30.02in /  1016.5hPa South 3mph /  4.8km/h 8mph /  12.9km/h 65% 0.00in /  0mm 543 W/m2
13:40 64.1 °F /  17.8 °C 51.6 °F /  10.9 °C 30.02in /  1016.5hPa West 7mph /  11.3km/h 15mph /  24.1km/h 64% 0.00in /  0mm 928 W/m2
13:50 65.3 °F /  18.5 °C 52.8 °F /  11.6 °C 30.02in /  1016.5hPa West 6mph /  9.7km/h 15mph /  24.1km/h 64% 0.00in /  0mm 916 W/m2
14:00 66 °F /  18.9 °C 52.7 °F /  11.5 °C 30.01in /  1016.1hPa West 9mph /  14.5km/h 14mph /  22.5km/h 62% 0.00in /  0mm 903 W/m2
14:10 66.4 °F /  19.1 °C 53 °F /  11.7 °C 30.01in /  1016.1hPa WNW 7mph /  11.3km/h 14mph /  22.5km/h 62% 0.00in /  0mm 889 W/m2
14:20 66.4 °F /  19.1 °C 52.1 °F /  11.2 °C 30.01in /  1016.1hPa West 8mph /  12.9km/h 15mph /  24.1km/h 60% 0.00in /  0mm 873 W/m2
14:30 66.2 °F /  19 °C 50.5 °F /  10.3 °C 30.01in /  1016.1hPa West 10mph /  16.1km/h 17mph /  27.4km/h 57% 0.00in /  0mm 834 W/m2
14:40 65.8 °F /  18.8 °C 51.1 °F /  10.6 °C 30.01in /  1016.1hPa West 8mph /  12.9km/h 17mph /  27.4km/h 59% 0.00in /  0mm 568 W/m2
14:50 65.7 °F /  18.7 °C 50.9 °F /  10.5 °C 30.01in /  1016.1hPa West 7mph /  11.3km/h 14mph /  22.5km/h 59% 0.00in /  0mm 747 W/m2
15:00 65.8 °F /  18.8 °C 51.1 °F /  10.6 °C 30.00in /  1015.8hPa West 7mph /  11.3km/h 15mph /  24.1km/h 59% 0.00in /  0mm 570 W/m2
15:10 65.8 °F /  18.8 °C 51.6 °F /  10.9 °C 30.00in /  1015.8hPa WNW 6mph /  9.7km/h 20mph /  32.2km/h 60% 0.00in /  0mm 614 W/m2
15:20 65.1 °F /  18.4 °C 51.7 °F /  10.9 °C 30.01in /  1016.1hPa WNW 8mph /  12.9km/h 16mph /  25.7km/h 62% 0.00in /  0mm 205 W/m2
15:30 63.1 °F /  17.3 °C 52.4 °F /  11.3 °C 30.01in /  1016.1hPa West 6mph /  9.7km/h 16mph /  25.7km/h 68% 0.00in /  0mm 210 W/m2
15:40 62.2 °F /  16.8 °C 52.3 °F /  11.3 °C 30.01in /  1016.1hPa WNW 3mph /  4.8km/h 12mph /  19.3km/h 70% 0.00in /  0mm 235 W/m2
15:50 62.4 °F /  16.9 °C 53.3 °F /  11.8 °C 30.01in /  1016.1hPa WNW 3mph /  4.8km/h 9mph /  14.5km/h 72% 0.00in /  0mm 412 W/m2
16:00 63.2 °F /  17.3 °C 52.1 °F /  11.2 °C 30.01in /  1016.1hPa WNW 3mph /  4.8km/h 11mph /  17.7km/h 67% 0.00in /  0mm 649 W/m2
16:10 64.8 °F /  18.2 °C 52.3 °F /  11.3 °C 30.01in /  1016.1hPa NNW 8mph /  12.9km/h 14mph /  22.5km/h 64% 0.00in /  0mm 622 W/m2
16:20 65.5 °F /  18.6 °C 52.1 °F /  11.2 °C 30.01in /  1016.1hPa NNW 6mph /  9.7km/h 14mph /  22.5km/h 62% 0.00in /  0mm 195 W/m2
16:30 64.9 °F /  18.3 °C 51.6 °F /  10.9 °C 30.01in /  1016.1hPa NNW 3mph /  4.8km/h 12mph /  19.3km/h 62% 0.00in /  0mm 404 W/m2
16:40 65.7 °F /  18.7 °C 52.7 °F /  11.5 °C 30.01in /  1016.1hPa WNW 6mph /  9.7km/h 14mph /  22.5km/h 63% 0.00in /  0mm 380 W/m2
16:50 65.8 °F /  18.8 °C 52.5 °F /  11.4 °C 30.01in /  1016.1hPa NW 3mph /  4.8km/h 17mph /  27.4km/h 62% 0.00in /  0mm 299 W/m2
17:00 65.3 °F /  18.5 °C 51.1 °F /  10.6 °C 30.01in /  1016.1hPa WNW 5mph /  8km/h 12mph /  19.3km/h 60% 0.00in /  0mm 235 W/m2
17:10 64.9 °F /  18.3 °C 52 °F /  11.1 °C 30.01in /  1016.1hPa NW 6mph /  9.7km/h 14mph /  22.5km/h 63% 0.00in /  0mm 216 W/m2
17:20 64.5 °F /  18.1 °C 52.1 °F /  11.2 °C 30.01in /  1016.1hPa WNW 5mph /  8km/h 13mph /  20.9km/h 64% 0.00in /  0mm 219 W/m2
17:30 64 °F /  17.8 °C 50.7 °F /  10.4 °C 30.01in /  1016.1hPa WNW 7mph /  11.3km/h 15mph /  24.1km/h 62% 0.00in /  0mm 105 W/m2
17:40 63.3 °F /  17.4 °C 49.2 °F /  9.6 °C 30.01in /  1016.1hPa NW 5mph /  8km/h 12mph /  19.3km/h 60% 0.00in /  0mm 197 W/m2
17:50 63.5 °F /  17.5 °C 50.2 °F /  10.1 °C 30.01in /  1016.1hPa NW 7mph /  11.3km/h 13mph /  20.9km/h 62% 0.00in /  0mm 322 W/m2
18:00 64.6 °F /  18.1 °C 51.3 °F /  10.7 °C 30.01in /  1016.1hPa WNW 8mph /  12.9km/h 16mph /  25.7km/h 62% 0.00in /  0mm 291 W/m2
18:10 64.4 °F /  18 °C 51.1 °F /  10.6 °C 30.01in /  1016.1hPa West 6mph /  9.7km/h 15mph /  24.1km/h 62% 0.00in /  0mm 261 W/m2
18:20 64.2 °F /  17.9 °C 50.9 °F /  10.5 °C 30.01in /  1016.1hPa West 5mph /  8km/h 13mph /  20.9km/h 62% 0.00in /  0mm 232 W/m2
18:30 64.2 °F /  17.9 °C 50 °F /  10 °C 30.02in /  1016.5hPa WNW 6mph /  9.7km/h 9mph /  14.5km/h 60% 0.00in /  0mm 169 W/m2
18:40 63.5 °F /  17.5 °C 50.2 °F /  10.1 °C 30.02in /  1016.5hPa NW 6mph /  9.7km/h 13mph /  20.9km/h 62% 0.00in /  0mm 98 W/m2
18:50 62.8 °F /  17.1 °C 50.4 °F /  10.2 °C 30.02in /  1016.5hPa WNW 3mph /  4.8km/h 12mph /  19.3km/h 64% 0.00in /  0mm 148 W/m2
19:00 62.7 °F /  17.1 °C 50.4 °F /  10.2 °C 30.02in /  1016.5hPa West 5mph /  8km/h 10mph /  16.1km/h 64% 0.00in /  0mm 105 W/m2
19:10 61.8 °F /  16.6 °C 49.9 °F /  9.9 °C 30.02in /  1016.5hPa WNW 8mph /  12.9km/h 12mph /  19.3km/h 65% 0.00in /  0mm 39 W/m2
19:20 60.6 °F /  15.9 °C 49.6 °F /  9.8 °C 30.02in /  1016.5hPa WNW 3mph /  4.8km/h 9mph /  14.5km/h 67% 0.00in /  0mm 33 W/m2
19:30 59.7 °F /  15.4 °C 49.5 °F /  9.7 °C 30.02in /  1016.5hPa WNW 3mph /  4.8km/h 9mph /  14.5km/h 69% 0.00in /  0mm 19 W/m2
19:40 59 °F /  15 °C 49.2 °F /  9.6 °C 30.03in /  1016.8hPa West 5mph /  8km/h 7mph /  11.3km/h 70% 0.00in /  0mm 10 W/m2
19:50 58.5 °F /  14.7 °C 49.5 °F /  9.7 °C 30.03in /  1016.8hPa West 5mph /  8km/h 6mph /  9.7km/h 72% 0.00in /  0mm 6 W/m2
20:00 57.9 °F /  14.4 °C 49.3 °F /  9.6 °C 30.02in /  1016.5hPa West 5mph /  8km/h 7mph /  11.3km/h 73% 0.00in /  0mm 4 W/m2
20:10 57.5 °F /  14.2 °C 49.3 °F /  9.6 °C 30.02in /  1016.5hPa WSW 3mph /  4.8km/h 6mph /  9.7km/h 74% 0.00in /  0mm 0 W/m2
20:20 57 °F /  13.9 °C 49.2 °F /  9.6 °C 30.02in /  1016.5hPa West 2mph /  3.2km/h 6mph /  9.7km/h 75% 0.00in /  0mm 0 W/m2
20:30 56.7 °F /  13.7 °C 48.8 °F /  9.3 °C 30.02in /  1016.5hPa West 3mph /  4.8km/h 7mph /  11.3km/h 75% 0.00in /  0mm 0 W/m2
20:40 56.3 °F /  13.5 °C 49.2 °F /  9.6 °C 30.03in /  1016.8hPa WSW 2mph /  3.2km/h 5mph /  8km/h 77% 0.00in /  0mm 0 W/m2
20:50 56.1 °F /  13.4 °C 49 °F /  9.4 °C 30.03in /  1016.8hPa WSW 2mph /  3.2km/h 4mph /  6.4km/h 77% 0.00in /  0mm 0 W/m2
Knjazevac, Serbia
Compliments of Weather Underground - 2 mb